PWSweather.com
Personal Weather Stations
Station Observations
WHAKATANE1
Whakatane, WhakataneNZ

WhakataneWhakataneNZ

Lat: -37.960954, Lon: 176.9768

Elevation: 10

Station Type: Lacrosse

Latest ConditionsUpdated 2:26:00 AM GMT+12:12 Friday, Oct 3, 2014
Currently Today's Max Today's Min Today's Average
Temperature 50.0°F10.0°C 52.0°F11.1°C 50.0°F10.0°C 51.0°F10.6°C
Dew Point 47.5°F8.6°C 49.1°F9.5°C 47.5°F8.6°C 48.4°F9.1°C
Winds 4.7 mph ENE7.6 kmh ENE 6.0 mph ENE9.7 kmh ENE - 3.8 mph 6.1 kmh
Wind Gusts 6.0 mph9.7 kmh 9.8 mph15.8 kmh - -
Humidity 91% 92% 89% 91%
Pressure 28.94 in980.0 mb 28.96 in980.7 mb 28.93 in979.7 mb -
Hour Temp Dew Point Humidity Winds Wind Gusts Pressure Precip Precip Rate Daily Precip Total
02:26 AM 50.0°F10.0°C 47.5°F8.6°C 91% 4.7 mph ENE7.6 kmh ENE 6.0 mph9.7 kmh 28.94 in980.0 mb 0.00 in0.0 mm 0.00 in/hr0.0 mm/hr 0.00 in0.0 mm
02:25 AM 50.0°F10.0°C 47.5°F8.6°C 91% 4.9 mph ENE7.9 kmh ENE 6.0 mph9.7 kmh 28.94 in980.0 mb 0.00 in0.0 mm 0.00 in/hr0.0 mm/hr 0.00 in0.0 mm
02:24 AM 50.0°F10.0°C 47.5°F8.6°C 91% 4.9 mph ENE7.9 kmh ENE 6.0 mph9.7 kmh 28.94 in980.0 mb 0.00 in0.0 mm 0.00 in/hr0.0 mm/hr 0.00 in0.0 mm
02:23 AM 50.0°F10.0°C 47.5°F8.6°C 91% 4.7 mph ENE7.6 kmh ENE 6.0 mph9.7 kmh 28.94 in980.0 mb 0.00 in0.0 mm 0.00 in/hr0.0 mm/hr 0.00 in0.0 mm
02:22 AM 50.0°F10.0°C 47.8°F8.8°C 92% 4.4 mph ENE7.1 kmh ENE 6.0 mph9.7 kmh 28.94 in980.0 mb 0.00 in0.0 mm 0.00 in/hr0.0 mm/hr 0.00 in0.0 mm
02:21 AM 50.0°F10.0°C 47.8°F8.8°C 92% 4.3 mph ENE6.9 kmh ENE 6.0 mph9.7 kmh 28.94 in980.0 mb 0.00 in0.0 mm 0.00 in/hr0.0 mm/hr 0.00 in0.0 mm
02:20 AM 50.0°F10.0°C 47.8°F8.8°C 92% 4.1 mph ENE6.6 kmh ENE 6.0 mph9.7 kmh 28.94 in980.0 mb 0.00 in0.0 mm 0.00 in/hr0.0 mm/hr 0.00 in0.0 mm
02:19 AM 50.0°F10.0°C 47.5°F8.6°C 91% 4.0 mph ENE6.4 kmh ENE 6.0 mph9.7 kmh 28.94 in980.0 mb 0.00 in0.0 mm 0.00 in/hr0.0 mm/hr 0.00 in0.0 mm
02:18 AM 50.0°F10.0°C 47.8°F8.8°C 92% 3.8 mph ENE6.1 kmh ENE 6.0 mph9.7 kmh 28.94 in980.0 mb 0.00 in0.0 mm 0.00 in/hr0.0 mm/hr 0.00 in0.0 mm
02:17 AM 50.0°F10.0°C 47.8°F8.8°C 92% 3.5 mph ENE5.6 kmh ENE 6.0 mph9.7 kmh 28.94 in980.0 mb 0.00 in0.0 mm 0.00 in/hr0.0 mm/hr 0.00 in0.0 mm
02:16 AM 50.0°F10.0°C 47.8°F8.8°C 92% 3.3 mph ENE5.3 kmh ENE 6.0 mph9.7 kmh 28.94 in980.0 mb 0.00 in0.0 mm 0.00 in/hr0.0 mm/hr 0.00 in0.0 mm
02:15 AM 50.0°F10.0°C 47.8°F8.8°C 92% 3.2 mph ENE5.1 kmh ENE 6.0 mph9.7 kmh 28.93 in979.7 mb 0.00 in0.0 mm 0.00 in/hr0.0 mm/hr 0.00 in0.0 mm
02:14 AM 50.0°F10.0°C 47.8°F8.8°C 92% 3.1 mph ENE5.0 kmh ENE 4.5 mph7.2 kmh 28.94 in980.0 mb 0.00 in0.0 mm 0.00 in/hr0.0 mm/hr 0.00 in0.0 mm
02:13 AM 50.0°F10.0°C 47.8°F8.8°C 92% 3.3 mph ENE5.3 kmh ENE 4.5 mph7.2 kmh 28.93 in979.7 mb 0.00 in0.0 mm 0.00 in/hr0.0 mm/hr 0.00 in0.0 mm
02:12 AM 50.0°F10.0°C 47.8°F8.8°C 92% 3.5 mph E5.6 kmh E 5.4 mph8.7 kmh 28.94 in980.0 mb 0.00 in0.0 mm 0.00 in/hr0.0 mm/hr 0.00 in0.0 mm
02:11 AM 50.0°F10.0°C 47.8°F8.8°C 92% 3.8 mph E6.1 kmh E 6.0 mph9.7 kmh 28.93 in979.7 mb 0.00 in0.0 mm 0.00 in/hr0.0 mm/hr 0.00 in0.0 mm
02:10 AM 50.0°F10.0°C 47.8°F8.8°C 92% 3.9 mph ENE6.3 kmh ENE 6.0 mph9.7 kmh 28.94 in980.0 mb 0.00 in0.0 mm 0.00 in/hr0.0 mm/hr 0.00 in0.0 mm
02:09 AM 50.0°F10.0°C 47.8°F8.8°C 92% 4.1 mph ENE6.6 kmh ENE 6.0 mph9.7 kmh 28.94 in980.0 mb 0.00 in0.0 mm 0.00 in/hr0.0 mm/hr 0.00 in0.0 mm
02:08 AM 50.0°F10.0°C 47.8°F8.8°C 92% 4.3 mph E6.9 kmh E 6.0 mph9.7 kmh 28.94 in980.0 mb 0.00 in0.0 mm 0.00 in/hr0.0 mm/hr 0.00 in0.0 mm
02:07 AM 50.0°F10.0°C 47.8°F8.8°C 92% 4.5 mph E7.2 kmh E 6.0 mph9.7 kmh 28.94 in980.0 mb 0.00 in0.0 mm 0.00 in/hr0.0 mm/hr 0.00 in0.0 mm
02:06 AM 50.0°F10.0°C 47.8°F8.8°C 92% 4.6 mph E7.4 kmh E 6.0 mph9.7 kmh 28.94 in980.0 mb 0.00 in0.0 mm 0.00 in/hr0.0 mm/hr 0.00 in0.0 mm
02:05 AM 50.0°F10.0°C 47.8°F8.8°C 92% 4.6 mph E7.4 kmh E 6.0 mph9.7 kmh 28.94 in980.0 mb 0.00 in0.0 mm 0.00 in/hr0.0 mm/hr 0.00 in0.0 mm
02:04 AM 50.0°F10.0°C 47.8°F8.8°C 92% 4.6 mph E7.4 kmh E 6.0 mph9.7 kmh 28.94 in980.0 mb 0.00 in0.0 mm 0.00 in/hr0.0 mm/hr 0.00 in0.0 mm
02:03 AM 50.0°F10.0°C 47.8°F8.8°C 92% 4.6 mph E7.4 kmh E 6.0 mph9.7 kmh 28.94 in980.0 mb 0.00 in0.0 mm 0.00 in/hr0.0 mm/hr 0.00 in0.0 mm
02:02 AM 50.0°F10.0°C 47.8°F8.8°C 92% 4.5 mph ENE7.2 kmh ENE 6.0 mph9.7 kmh 28.94 in980.0 mb 0.00 in0.0 mm 0.00 in/hr0.0 mm/hr 0.00 in0.0 mm
02:01 AM 50.0°F10.0°C 47.8°F8.8°C 92% 4.2 mph ENE6.8 kmh ENE 5.4 mph8.7 kmh 28.94 in980.0 mb 0.00 in0.0 mm 0.00 in/hr0.0 mm/hr 0.00 in0.0 mm
02:00 AM 50.0°F10.0°C 47.8°F8.8°C 92% 4.1 mph ENE6.6 kmh ENE 5.4 mph8.7 kmh 28.94 in980.0 mb 0.00 in0.0 mm 0.00 in/hr0.0 mm/hr 0.00 in0.0 mm
01:59 AM 50.2°F10.1°C 48.0°F8.9°C 92% 4.0 mph ENE6.4 kmh ENE 5.4 mph8.7 kmh 28.94 in980.0 mb 0.00 in0.0 mm 0.00 in/hr0.0 mm/hr 0.00 in0.0 mm
01:58 AM 50.2°F10.1°C 48.0°F8.9°C 92% 4.1 mph ENE6.6 kmh ENE 5.4 mph8.7 kmh 28.94 in980.0 mb 0.00 in0.0 mm 0.00 in/hr0.0 mm/hr 0.00 in0.0 mm
01:57 AM 50.2°F10.1°C 48.0°F8.9°C 92% 4.1 mph ENE6.6 kmh ENE 5.4 mph8.7 kmh 28.94 in980.0 mb 0.00 in0.0 mm 0.00 in/hr0.0 mm/hr 0.00 in0.0 mm
01:56 AM 50.2°F10.1°C 48.0°F8.9°C 92% 4.0 mph ENE6.4 kmh ENE 5.4 mph8.7 kmh 28.94 in980.0 mb 0.00 in0.0 mm 0.00 in/hr0.0 mm/hr 0.00 in0.0 mm
01:55 AM 50.2°F10.1°C 48.0°F8.9°C 92% 4.0 mph ENE6.4 kmh ENE 5.4 mph8.7 kmh 28.94 in980.0 mb 0.00 in0.0 mm 0.00 in/hr0.0 mm/hr 0.00 in0.0 mm
01:54 AM 50.2°F10.1°C 48.0°F8.9°C 92% 4.1 mph ENE6.6 kmh ENE 5.4 mph8.7 kmh 28.95 in980.4 mb 0.00 in0.0 mm 0.00 in/hr0.0 mm/hr 0.00 in0.0 mm
01:53 AM 50.2°F10.1°C 48.0°F8.9°C 92% 4.1 mph ENE6.6 kmh ENE 5.4 mph8.7 kmh 28.95 in980.4 mb 0.00 in0.0 mm 0.00 in/hr0.0 mm/hr 0.00 in0.0 mm
01:52 AM 50.2°F10.1°C 48.0°F8.9°C 92% 4.1 mph ENE6.6 kmh ENE 5.4 mph8.7 kmh 28.95 in980.4 mb 0.00 in0.0 mm 0.00 in/hr0.0 mm/hr 0.00 in0.0 mm
01:51 AM 50.2°F10.1°C 48.0°F8.9°C 92% 4.3 mph ENE6.9 kmh ENE 5.4 mph8.7 kmh 28.95 in980.4 mb 0.00 in0.0 mm 0.00 in/hr0.0 mm/hr 0.00 in0.0 mm
01:50 AM 50.2°F10.1°C 48.0°F8.9°C 92% 4.5 mph ENE7.2 kmh ENE 5.4 mph8.7 kmh 28.95 in980.4 mb 0.00 in0.0 mm 0.00 in/hr0.0 mm/hr 0.00 in0.0 mm
01:49 AM 50.2°F10.1°C 48.0°F8.9°C 92% 4.5 mph ENE7.2 kmh ENE 5.4 mph8.7 kmh 28.95 in980.4 mb 0.00 in0.0 mm 0.00 in/hr0.0 mm/hr 0.00 in0.0 mm
01:48 AM 50.2°F10.1°C 48.0°F8.9°C 92% 4.5 mph ENE7.2 kmh ENE 5.4 mph8.7 kmh 28.95 in980.4 mb 0.00 in0.0 mm 0.00 in/hr0.0 mm/hr 0.00 in0.0 mm
01:47 AM 50.2°F10.1°C 48.0°F8.9°C 92% 4.4 mph ENE7.1 kmh ENE 5.4 mph8.7 kmh 28.95 in980.4 mb 0.00 in0.0 mm 0.00 in/hr0.0 mm/hr 0.00 in0.0 mm
01:46 AM 50.2°F10.1°C 48.0°F8.9°C 92% 4.4 mph ENE7.1 kmh ENE 5.4 mph8.7 kmh 28.95 in980.4 mb 0.00 in0.0 mm 0.00 in/hr0.0 mm/hr 0.00 in0.0 mm
01:45 AM 50.2°F10.1°C 48.0°F8.9°C 92% 4.3 mph ENE6.9 kmh ENE 5.4 mph8.7 kmh 28.95 in980.4 mb 0.00 in0.0 mm 0.00 in/hr0.0 mm/hr 0.00 in0.0 mm
01:44 AM 50.2°F10.1°C 48.0°F8.9°C 92% 4.4 mph ENE7.1 kmh ENE 6.9 mph11.1 kmh 28.95 in980.4 mb 0.00 in0.0 mm 0.00 in/hr0.0 mm/hr 0.00 in0.0 mm
01:43 AM 50.2°F10.1°C 48.0°F8.9°C 92% 4.5 mph ENE7.2 kmh ENE 6.9 mph11.1 kmh 28.95 in980.4 mb 0.00 in0.0 mm 0.00 in/hr0.0 mm/hr 0.00 in0.0 mm
01:42 AM 50.2°F10.1°C 48.0°F8.9°C 92% 4.4 mph ENE7.1 kmh ENE 6.9 mph11.1 kmh 28.95 in980.4 mb 0.00 in0.0 mm 0.00 in/hr0.0 mm/hr 0.00 in0.0 mm
01:41 AM 50.2°F10.1°C 48.0°F8.9°C 92% 4.1 mph ENE6.6 kmh ENE 6.9 mph11.1 kmh 28.95 in980.4 mb 0.00 in0.0 mm 0.00 in/hr0.0 mm/hr 0.00 in0.0 mm
01:40 AM 50.2°F10.1°C 48.0°F8.9°C 92% 4.0 mph E6.4 kmh E 6.9 mph11.1 kmh 28.95 in980.4 mb 0.00 in0.0 mm 0.00 in/hr0.0 mm/hr 0.00 in0.0 mm
01:39 AM 50.2°F10.1°C 48.0°F8.9°C 92% 3.8 mph E6.1 kmh E 6.9 mph11.1 kmh 28.95 in980.4 mb 0.00 in0.0 mm 0.00 in/hr0.0 mm/hr 0.00 in0.0 mm
01:38 AM 50.2°F10.1°C 48.0°F8.9°C 92% 3.6 mph E5.8 kmh E 6.9 mph11.1 kmh 28.95 in980.4 mb 0.00 in0.0 mm 0.00 in/hr0.0 mm/hr 0.00 in0.0 mm
01:37 AM 50.2°F10.1°C 48.0°F8.9°C 92% 3.4 mph ENE5.5 kmh ENE 6.9 mph11.1 kmh 28.94 in980.0 mb 0.00 in0.0 mm 0.00 in/hr0.0 mm/hr 0.00 in0.0 mm
01:36 AM 50.2°F10.1°C 48.0°F8.9°C 92% 3.2 mph ENE5.1 kmh ENE 6.9 mph11.1 kmh 28.95 in980.4 mb 0.00 in0.0 mm 0.00 in/hr0.0 mm/hr 0.00 in0.0 mm
01:35 AM 50.2°F10.1°C 48.0°F8.9°C 92% 3.1 mph ENE5.0 kmh ENE 6.9 mph11.1 kmh 28.94 in980.0 mb 0.00 in0.0 mm 0.00 in/hr0.0 mm/hr 0.00 in0.0 mm
01:34 AM 50.2°F10.1°C 48.0°F8.9°C 92% 2.8 mph E4.5 kmh E 6.9 mph11.1 kmh 28.94 in980.0 mb 0.00 in0.0 mm 0.00 in/hr0.0 mm/hr 0.00 in0.0 mm
01:33 AM 50.2°F10.1°C 48.0°F8.9°C 92% 2.4 mph E3.9 kmh E 3.8 mph6.1 kmh 28.94 in980.0 mb 0.00 in0.0 mm 0.00 in/hr0.0 mm/hr 0.00 in0.0 mm
01:32 AM 50.2°F10.1°C 48.0°F8.9°C 92% 2.3 mph E3.7 kmh E 3.8 mph6.1 kmh 28.94 in980.0 mb 0.00 in0.0 mm 0.00 in/hr0.0 mm/hr 0.00 in0.0 mm
01:31 AM 50.2°F10.1°C 48.0°F8.9°C 92% 2.3 mph E3.7 kmh E 3.8 mph6.1 kmh 28.94 in980.0 mb 0.00 in0.0 mm 0.00 in/hr0.0 mm/hr 0.00 in0.0 mm
01:30 AM 50.2°F10.1°C 47.7°F8.7°C 91% 2.3 mph ENE3.7 kmh ENE 3.1 mph5.0 kmh 28.95 in980.4 mb 0.00 in0.0 mm 0.00 in/hr0.0 mm/hr 0.00 in0.0 mm
01:29 AM 50.4°F10.2°C 47.8°F8.8°C 91% 2.2 mph ENE3.5 kmh ENE 3.1 mph5.0 kmh 28.95 in980.4 mb 0.00 in0.0 mm 0.00 in/hr0.0 mm/hr 0.00 in0.0 mm
01:28 AM 50.4°F10.2°C 47.8°F8.8°C 91% 2.3 mph ENE3.7 kmh ENE 3.1 mph5.0 kmh 28.95 in980.4 mb 0.00 in0.0 mm 0.00 in/hr0.0 mm/hr 0.00 in0.0 mm
01:27 AM 50.4°F10.2°C 47.8°F8.8°C 91% 2.4 mph ENE3.9 kmh ENE 3.1 mph5.0 kmh 28.95 in980.4 mb 0.00 in0.0 mm 0.00 in/hr0.0 mm/hr 0.00 in0.0 mm
01:26 AM 50.4°F10.2°C 47.8°F8.8°C 91% 2.5 mph ENE4.0 kmh ENE 3.8 mph6.1 kmh 28.95 in980.4 mb 0.00 in0.0 mm 0.00 in/hr0.0 mm/hr 0.00 in0.0 mm
01:25 AM 50.5°F10.3°C 48.0°F8.9°C 91% 2.5 mph ENE4.0 kmh ENE 3.8 mph6.1 kmh 28.95 in980.4 mb 0.00 in0.0 mm 0.00 in/hr0.0 mm/hr 0.00 in0.0 mm
01:24 AM 50.4°F10.2°C 47.8°F8.8°C 91% 2.6 mph ENE4.2 kmh ENE 3.8 mph6.1 kmh 28.95 in980.4 mb 0.00 in0.0 mm 0.00 in/hr0.0 mm/hr 0.00 in0.0 mm
01:23 AM 50.5°F10.3°C 48.0°F8.9°C 91% 2.6 mph ENE4.2 kmh ENE 3.8 mph6.1 kmh 28.95 in980.4 mb 0.00 in0.0 mm 0.00 in/hr0.0 mm/hr 0.00 in0.0 mm
01:22 AM 50.5°F10.3°C 48.0°F8.9°C 91% 2.4 mph E3.9 kmh E 3.8 mph6.1 kmh 28.95 in980.4 mb 0.00 in0.0 mm 0.00 in/hr0.0 mm/hr 0.00 in0.0 mm
01:21 AM 50.5°F10.3°C 48.0°F8.9°C 91% 2.4 mph E3.9 kmh E 3.8 mph6.1 kmh 28.95 in980.4 mb 0.00 in0.0 mm 0.00 in/hr0.0 mm/hr 0.00 in0.0 mm
01:20 AM 50.5°F10.3°C 48.0°F8.9°C 91% 2.3 mph E3.7 kmh E 3.8 mph6.1 kmh 28.95 in980.4 mb 0.00 in0.0 mm 0.00 in/hr0.0 mm/hr 0.00 in0.0 mm
01:19 AM 50.5°F10.3°C 48.0°F8.9°C 91% 2.1 mph ENE3.4 kmh ENE 3.8 mph6.1 kmh 28.95 in980.4 mb 0.00 in0.0 mm 0.00 in/hr0.0 mm/hr 0.00 in0.0 mm
01:18 AM 50.7°F10.4°C 48.2°F9.0°C 91% 1.9 mph ENE3.1 kmh ENE 3.8 mph6.1 kmh 28.95 in980.4 mb 0.00 in0.0 mm 0.00 in/hr0.0 mm/hr 0.00 in0.0 mm
01:17 AM 50.7°F10.4°C 48.2°F9.0°C 91% 1.8 mph ENE2.9 kmh ENE 3.8 mph6.1 kmh 28.95 in980.4 mb 0.00 in0.0 mm 0.00 in/hr0.0 mm/hr 0.00 in0.0 mm
01:16 AM 50.7°F10.4°C 48.2°F9.0°C 91% 1.6 mph NE2.6 kmh NE 3.8 mph6.1 kmh 28.95 in980.4 mb 0.00 in0.0 mm 0.00 in/hr0.0 mm/hr 0.00 in0.0 mm
01:15 AM 50.7°F10.4°C 47.9°F8.8°C 90% 1.5 mph NE2.4 kmh NE 2.2 mph3.5 kmh 28.95 in980.4 mb 0.00 in0.0 mm 0.00 in/hr0.0 mm/hr 0.00 in0.0 mm
01:14 AM 50.9°F10.5°C 48.1°F8.9°C 90% 1.6 mph NE2.6 kmh NE 3.1 mph5.0 kmh 28.95 in980.4 mb 0.00 in0.0 mm 0.00 in/hr0.0 mm/hr 0.00 in0.0 mm
01:13 AM 50.9°F10.5°C 48.1°F8.9°C 90% 1.7 mph NE2.7 kmh NE 3.1 mph5.0 kmh 28.95 in980.4 mb 0.00 in0.0 mm 0.00 in/hr0.0 mm/hr 0.00 in0.0 mm
01:12 AM 50.9°F10.5°C 48.1°F8.9°C 90% 1.7 mph NE2.7 kmh NE 3.1 mph5.0 kmh 28.95 in980.4 mb 0.00 in0.0 mm 0.00 in/hr0.0 mm/hr 0.00 in0.0 mm
01:11 AM 50.9°F10.5°C 48.1°F8.9°C 90% 1.7 mph NE2.7 kmh NE 3.1 mph5.0 kmh 28.95 in980.4 mb 0.00 in0.0 mm 0.00 in/hr0.0 mm/hr 0.00 in0.0 mm
01:10 AM 51.1°F10.6°C 48.3°F9.1°C 90% 1.7 mph ENE2.7 kmh ENE 3.1 mph5.0 kmh 28.95 in980.4 mb 0.00 in0.0 mm 0.00 in/hr0.0 mm/hr 0.00 in0.0 mm
01:09 AM 51.1°F10.6°C 48.3°F9.1°C 90% 2.0 mph E3.2 kmh E 3.8 mph6.1 kmh 28.95 in980.4 mb 0.00 in0.0 mm 0.00 in/hr0.0 mm/hr 0.00 in0.0 mm
01:08 AM 51.1°F10.6°C 48.3°F9.1°C 90% 2.2 mph E3.5 kmh E 4.5 mph7.2 kmh 28.95 in980.4 mb 0.00 in0.0 mm 0.00 in/hr0.0 mm/hr 0.00 in0.0 mm
01:07 AM 51.3°F10.7°C 48.4°F9.1°C 90% 2.5 mph ENE4.0 kmh ENE 4.5 mph7.2 kmh 28.95 in980.4 mb 0.00 in0.0 mm 0.00 in/hr0.0 mm/hr 0.00 in0.0 mm
01:06 AM 51.3°F10.7°C 48.4°F9.1°C 90% 2.8 mph ENE4.5 kmh ENE 4.5 mph7.2 kmh 28.95 in980.4 mb 0.00 in0.0 mm 0.00 in/hr0.0 mm/hr 0.00 in0.0 mm
01:05 AM 51.3°F10.7°C 48.4°F9.1°C 90% 2.9 mph ENE4.7 kmh ENE 4.5 mph7.2 kmh 28.95 in980.4 mb 0.00 in0.0 mm 0.00 in/hr0.0 mm/hr 0.00 in0.0 mm
01:04 AM 51.3°F10.7°C 48.4°F9.1°C 90% 2.9 mph ENE4.7 kmh ENE 4.5 mph7.2 kmh 28.95 in980.4 mb 0.00 in0.0 mm 0.00 in/hr0.0 mm/hr 0.00 in0.0 mm
01:03 AM 51.4°F10.8°C 48.6°F9.2°C 90% 3.0 mph E4.8 kmh E 6.0 mph9.7 kmh 28.95 in980.4 mb 0.00 in0.0 mm 0.00 in/hr0.0 mm/hr 0.00 in0.0 mm
01:02 AM 51.4°F10.8°C 48.9°F9.4°C 91% 3.3 mph ENE5.3 kmh ENE 6.0 mph9.7 kmh 28.95 in980.4 mb 0.00 in0.0 mm 0.00 in/hr0.0 mm/hr 0.00 in0.0 mm
01:01 AM 51.4°F10.8°C 48.9°F9.4°C 91% 3.5 mph ENE5.6 kmh ENE 6.0 mph9.7 kmh 28.95 in980.4 mb 0.00 in0.0 mm 0.00 in/hr0.0 mm/hr 0.00 in0.0 mm
01:00 AM 51.4°F10.8°C 48.6°F9.2°C 90% 3.8 mph ENE6.1 kmh ENE 6.0 mph9.7 kmh 28.95 in980.4 mb 0.00 in0.0 mm 0.00 in/hr0.0 mm/hr 0.00 in0.0 mm
12:59 AM 51.4°F10.8°C 48.6°F9.2°C 90% 3.9 mph ENE6.3 kmh ENE 6.0 mph9.7 kmh 28.95 in980.4 mb 0.00 in0.0 mm 0.00 in/hr0.0 mm/hr 0.00 in0.0 mm
12:58 AM 51.4°F10.8°C 48.6°F9.2°C 90% 4.0 mph ENE6.4 kmh ENE 6.0 mph9.7 kmh 28.95 in980.4 mb 0.00 in0.0 mm 0.00 in/hr0.0 mm/hr 0.00 in0.0 mm
12:57 AM 51.4°F10.8°C 48.6°F9.2°C 90% 4.3 mph ENE6.9 kmh ENE 6.9 mph11.1 kmh 28.95 in980.4 mb 0.00 in0.0 mm 0.00 in/hr0.0 mm/hr 0.00 in0.0 mm
12:56 AM 51.6°F10.9°C 48.8°F9.3°C 90% 4.3 mph ENE6.9 kmh ENE 6.9 mph11.1 kmh 28.95 in980.4 mb 0.00 in0.0 mm 0.00 in/hr0.0 mm/hr 0.00 in0.0 mm
12:55 AM 51.6°F10.9°C 48.8°F9.3°C 90% 4.5 mph ENE7.2 kmh ENE 6.9 mph11.1 kmh 28.95 in980.4 mb 0.00 in0.0 mm 0.00 in/hr0.0 mm/hr 0.00 in0.0 mm
12:54 AM 51.6°F10.9°C 48.8°F9.3°C 90% 4.6 mph ENE7.4 kmh ENE 6.9 mph11.1 kmh 28.95 in980.4 mb 0.00 in0.0 mm 0.00 in/hr0.0 mm/hr 0.00 in0.0 mm
12:53 AM 51.6°F10.9°C 48.8°F9.3°C 90% 4.8 mph ENE7.7 kmh ENE 6.9 mph11.1 kmh 28.96 in980.7 mb 0.00 in0.0 mm 0.00 in/hr0.0 mm/hr 0.00 in0.0 mm
12:52 AM 51.6°F10.9°C 48.8°F9.3°C 90% 4.7 mph ENE7.6 kmh ENE 6.9 mph11.1 kmh 28.95 in980.4 mb 0.00 in0.0 mm 0.00 in/hr0.0 mm/hr 0.00 in0.0 mm
12:51 AM 51.6°F10.9°C 48.8°F9.3°C 90% 5.0 mph ENE8.0 kmh ENE 7.6 mph12.2 kmh 28.95 in980.4 mb 0.00 in0.0 mm 0.00 in/hr0.0 mm/hr 0.00 in0.0 mm
12:50 AM 51.6°F10.9°C 48.8°F9.3°C 90% 5.0 mph ENE8.0 kmh ENE 7.6 mph12.2 kmh 28.95 in980.4 mb 0.00 in0.0 mm 0.00 in/hr0.0 mm/hr 0.00 in0.0 mm
12:49 AM 51.8°F11.0°C 49.0°F9.4°C 90% 5.1 mph ENE8.2 kmh ENE 7.6 mph12.2 kmh 28.95 in980.4 mb 0.00 in0.0 mm 0.00 in/hr0.0 mm/hr 0.00 in0.0 mm
12:48 AM 51.8°F11.0°C 49.0°F9.4°C 90% 5.5 mph NE8.9 kmh NE 9.2 mph14.8 kmh 28.95 in980.4 mb 0.00 in0.0 mm 0.00 in/hr0.0 mm/hr 0.00 in0.0 mm
12:47 AM 51.8°F11.0°C 49.0°F9.4°C 90% 5.3 mph NE8.5 kmh NE 9.2 mph14.8 kmh 28.95 in980.4 mb 0.00 in0.0 mm 0.00 in/hr0.0 mm/hr 0.00 in0.0 mm
12:46 AM 51.8°F11.0°C 49.0°F9.4°C 90% 5.5 mph NE8.9 kmh NE 9.2 mph14.8 kmh 28.95 in980.4 mb 0.00 in0.0 mm 0.00 in/hr0.0 mm/hr 0.00 in0.0 mm
12:45 AM 51.8°F11.0°C 49.0°F9.4°C 90% 5.5 mph NE8.9 kmh NE 9.2 mph14.8 kmh 28.95 in980.4 mb 0.00 in0.0 mm 0.00 in/hr0.0 mm/hr 0.00 in0.0 mm
12:44 AM 51.8°F11.0°C 49.0°F9.4°C 90% 5.5 mph ENE8.9 kmh ENE 9.2 mph14.8 kmh 28.95 in980.4 mb 0.00 in0.0 mm 0.00 in/hr0.0 mm/hr 0.00 in0.0 mm
12:43 AM 51.8°F11.0°C 49.0°F9.4°C 90% 6.0 mph ENE9.7 kmh ENE 9.8 mph15.8 kmh 28.95 in980.4 mb 0.00 in0.0 mm 0.00 in/hr0.0 mm/hr 0.00 in0.0 mm
12:42 AM 51.8°F11.0°C 49.0°F9.4°C 90% 5.9 mph ENE9.5 kmh ENE 9.8 mph15.8 kmh 28.95 in980.4 mb 0.00 in0.0 mm 0.00 in/hr0.0 mm/hr 0.00 in0.0 mm
12:41 AM 51.8°F11.0°C 49.0°F9.4°C 90% 5.7 mph ENE9.2 kmh ENE 9.8 mph15.8 kmh 28.95 in980.4 mb 0.00 in0.0 mm 0.00 in/hr0.0 mm/hr 0.00 in0.0 mm
12:40 AM 51.8°F11.0°C 49.0°F9.4°C 90% 6.0 mph ENE9.7 kmh ENE 9.8 mph15.8 kmh 28.95 in980.4 mb 0.00 in0.0 mm 0.00 in/hr0.0 mm/hr 0.00 in0.0 mm
12:39 AM 51.8°F11.0°C 49.0°F9.4°C 90% 6.0 mph ENE9.7 kmh ENE 9.8 mph15.8 kmh 28.95 in980.4 mb 0.00 in0.0 mm 0.00 in/hr0.0 mm/hr 0.00 in0.0 mm
12:38 AM 51.8°F11.0°C 49.0°F9.4°C 90% 5.8 mph ENE9.3 kmh ENE 9.8 mph15.8 kmh 28.95 in980.4 mb 0.00 in0.0 mm 0.00 in/hr0.0 mm/hr 0.00 in0.0 mm
12:37 AM 51.8°F11.0°C 49.0°F9.4°C 90% 5.7 mph ENE9.2 kmh ENE 9.8 mph15.8 kmh 28.95 in980.4 mb 0.00 in0.0 mm 0.00 in/hr0.0 mm/hr 0.00 in0.0 mm
12:36 AM 51.8°F11.0°C 49.0°F9.4°C 90% 5.6 mph ENE9.0 kmh ENE 9.8 mph15.8 kmh 28.95 in980.4 mb 0.00 in0.0 mm 0.00 in/hr0.0 mm/hr 0.00 in0.0 mm
12:35 AM 51.8°F11.0°C 49.0°F9.4°C 90% 5.7 mph ENE9.2 kmh ENE 9.8 mph15.8 kmh 28.95 in980.4 mb 0.00 in0.0 mm 0.00 in/hr0.0 mm/hr 0.00 in0.0 mm
12:34 AM 51.8°F11.0°C 49.0°F9.4°C 90% 5.5 mph ENE8.9 kmh ENE 9.8 mph15.8 kmh 28.95 in980.4 mb 0.00 in0.0 mm 0.00 in/hr0.0 mm/hr 0.00 in0.0 mm
12:33 AM 51.8°F11.0°C 49.0°F9.4°C 90% 4.8 mph ENE7.7 kmh ENE 6.9 mph11.1 kmh 28.95 in980.4 mb 0.00 in0.0 mm 0.00 in/hr0.0 mm/hr 0.00 in0.0 mm
12:32 AM 51.8°F11.0°C 49.0°F9.4°C 90% 4.7 mph ENE7.6 kmh ENE 6.9 mph11.1 kmh 28.95 in980.4 mb 0.00 in0.0 mm 0.00 in/hr0.0 mm/hr 0.00 in0.0 mm
12:31 AM 51.8°F11.0°C 49.0°F9.4°C 90% 4.5 mph ENE7.2 kmh ENE 6.9 mph11.1 kmh 28.95 in980.4 mb 0.00 in0.0 mm 0.00 in/hr0.0 mm/hr 0.00 in0.0 mm
12:30 AM 51.8°F11.0°C 49.0°F9.4°C 90% 4.2 mph ENE6.8 kmh ENE 6.9 mph11.1 kmh 28.95 in980.4 mb 0.00 in0.0 mm 0.00 in/hr0.0 mm/hr 0.00 in0.0 mm
12:29 AM 51.8°F11.0°C 49.0°F9.4°C 90% 3.9 mph ENE6.3 kmh ENE 6.9 mph11.1 kmh 28.96 in980.7 mb 0.00 in0.0 mm 0.00 in/hr0.0 mm/hr 0.00 in0.0 mm
12:28 AM 51.8°F11.0°C 49.0°F9.4°C 90% 3.5 mph ENE5.6 kmh ENE 6.0 mph9.7 kmh 28.96 in980.7 mb 0.00 in0.0 mm 0.00 in/hr0.0 mm/hr 0.00 in0.0 mm
12:27 AM 51.8°F11.0°C 49.0°F9.4°C 90% 3.5 mph ENE5.6 kmh ENE 6.0 mph9.7 kmh 28.96 in980.7 mb 0.00 in0.0 mm 0.00 in/hr0.0 mm/hr 0.00 in0.0 mm
12:26 AM 52.0°F11.1°C 49.1°F9.5°C 90% 3.2 mph ENE5.1 kmh ENE 6.0 mph9.7 kmh 28.96 in980.7 mb 0.00 in0.0 mm 0.00 in/hr0.0 mm/hr 0.00 in0.0 mm
12:25 AM 52.0°F11.1°C 49.1°F9.5°C 90% 2.9 mph ENE4.7 kmh ENE 4.5 mph7.2 kmh 28.96 in980.7 mb 0.00 in0.0 mm 0.00 in/hr0.0 mm/hr 0.00 in0.0 mm
12:24 AM 52.0°F11.1°C 49.1°F9.5°C 90% 3.1 mph ENE5.0 kmh ENE 5.4 mph8.7 kmh 28.96 in980.7 mb 0.00 in0.0 mm 0.00 in/hr0.0 mm/hr 0.00 in0.0 mm
12:23 AM 52.0°F11.1°C 49.1°F9.5°C 90% 3.3 mph ENE5.3 kmh ENE 5.4 mph8.7 kmh 28.96 in980.7 mb 0.00 in0.0 mm 0.00 in/hr0.0 mm/hr 0.00 in0.0 mm
12:22 AM 52.0°F11.1°C 49.1°F9.5°C 90% 3.3 mph ENE5.3 kmh ENE 5.4 mph8.7 kmh 28.96 in980.7 mb 0.00 in0.0 mm 0.00 in/hr0.0 mm/hr 0.00 in0.0 mm
12:21 AM 52.0°F11.1°C 49.1°F9.5°C 90% 3.4 mph ENE5.5 kmh ENE 5.4 mph8.7 kmh 28.96 in980.7 mb 0.00 in0.0 mm 0.00 in/hr0.0 mm/hr 0.00 in0.0 mm
12:20 AM 52.0°F11.1°C 49.1°F9.5°C 90% 3.6 mph ENE5.8 kmh ENE 5.4 mph8.7 kmh 28.96 in980.7 mb 0.00 in0.0 mm 0.00 in/hr0.0 mm/hr 0.00 in0.0 mm
12:19 AM 52.0°F11.1°C 49.1°F9.5°C 90% 3.6 mph ENE5.8 kmh ENE 5.4 mph8.7 kmh 28.96 in980.7 mb 0.00 in0.0 mm 0.00 in/hr0.0 mm/hr 0.00 in0.0 mm
12:18 AM 52.0°F11.1°C 48.8°F9.3°C 89% 3.8 mph NE6.1 kmh NE 5.4 mph8.7 kmh 28.96 in980.7 mb 0.00 in0.0 mm 0.00 in/hr0.0 mm/hr 0.00 in0.0 mm
12:17 AM 52.0°F11.1°C 49.1°F9.5°C 90% 3.7 mph ENE6.0 kmh ENE 5.4 mph8.7 kmh 28.96 in980.7 mb 0.00 in0.0 mm 0.00 in/hr0.0 mm/hr 0.00 in0.0 mm
12:16 AM 52.0°F11.1°C 49.1°F9.5°C 90% 3.9 mph ENE6.3 kmh ENE 5.4 mph8.7 kmh 28.96 in980.7 mb 0.00 in0.0 mm 0.00 in/hr0.0 mm/hr 0.00 in0.0 mm
12:15 AM 52.0°F11.1°C 49.1°F9.5°C 90% 3.8 mph NE6.1 kmh NE 5.4 mph8.7 kmh 28.96 in980.7 mb 0.00 in0.0 mm 0.00 in/hr0.0 mm/hr 0.00 in0.0 mm
12:14 AM 52.0°F11.1°C 49.1°F9.5°C 90% 3.7 mph NE6.0 kmh NE 5.4 mph8.7 kmh 28.96 in980.7 mb 0.00 in0.0 mm 0.00 in/hr0.0 mm/hr 0.00 in0.0 mm
12:13 AM 52.0°F11.1°C 49.1°F9.5°C 90% 3.7 mph NE6.0 kmh NE 5.4 mph8.7 kmh 28.96 in980.7 mb 0.00 in0.0 mm 0.00 in/hr0.0 mm/hr 0.00 in0.0 mm
12:12 AM 52.0°F11.1°C 49.1°F9.5°C 90% 3.7 mph NE6.0 kmh NE 5.4 mph8.7 kmh 28.96 in980.7 mb 0.00 in0.0 mm 0.00 in/hr0.0 mm/hr 0.00 in0.0 mm
12:11 AM 52.0°F11.1°C 49.1°F9.5°C 90% 3.7 mph NE6.0 kmh NE 5.4 mph8.7 kmh 28.96 in980.7 mb 0.00 in0.0 mm 0.00 in/hr0.0 mm/hr 0.00 in0.0 mm
12:10 AM 52.0°F11.1°C 49.1°F9.5°C 90% 3.7 mph NE6.0 kmh NE 5.4 mph8.7 kmh 28.96 in980.7 mb 0.00 in0.0 mm 0.00 in/hr0.0 mm/hr 0.00 in0.0 mm
12:09 AM 52.0°F11.1°C 49.1°F9.5°C 90% 3.8 mph NE6.1 kmh NE 5.4 mph8.7 kmh 28.96 in980.7 mb 0.00 in0.0 mm 0.00 in/hr0.0 mm/hr 0.00 in0.0 mm
12:08 AM 52.0°F11.1°C 49.1°F9.5°C 90% 3.6 mph NE5.8 kmh NE 5.4 mph8.7 kmh 28.96 in980.7 mb 0.00 in0.0 mm 0.00 in/hr0.0 mm/hr 0.00 in0.0 mm
12:07 AM 52.0°F11.1°C 49.1°F9.5°C 90% 3.7 mph NE6.0 kmh NE 5.4 mph8.7 kmh 28.96 in980.7 mb 0.00 in0.0 mm 0.00 in/hr0.0 mm/hr 0.00 in0.0 mm
12:06 AM 52.0°F11.1°C 49.1°F9.5°C 90% 3.7 mph NE6.0 kmh NE 5.4 mph8.7 kmh 28.96 in980.7 mb 0.00 in0.0 mm 0.00 in/hr0.0 mm/hr 0.00 in0.0 mm
12:05 AM 52.0°F11.1°C 49.1°F9.5°C 90% 3.8 mph NE6.1 kmh NE 5.4 mph8.7 kmh 28.96 in980.7 mb 0.00 in0.0 mm 0.00 in/hr0.0 mm/hr 0.00 in0.0 mm
12:04 AM 52.0°F11.1°C 49.1°F9.5°C 90% 3.7 mph NE6.0 kmh NE 5.4 mph8.7 kmh 28.96 in980.7 mb 0.00 in0.0 mm 0.00 in/hr0.0 mm/hr 0.00 in0.0 mm
12:03 AM 52.0°F11.1°C 49.1°F9.5°C 90% 3.7 mph ENE6.0 kmh ENE 5.4 mph8.7 kmh 28.96 in980.7 mb 0.00 in0.0 mm 0.00 in/hr0.0 mm/hr 0.00 in0.0 mm
12:02 AM 52.0°F11.1°C 49.1°F9.5°C 90% 3.6 mph ENE5.8 kmh ENE 5.4 mph8.7 kmh 28.96 in980.7 mb 0.00 in0.0 mm 0.00 in/hr0.0 mm/hr 0.00 in0.0 mm
12:01 AM 52.0°F11.1°C 49.1°F9.5°C 90% 3.4 mph ENE5.5 kmh ENE 5.4 mph8.7 kmh 28.96 in980.7 mb 0.00 in0.0 mm 0.00 in/hr0.0 mm/hr 0.00 in0.0 mm
12:00 AM 52.0°F11.1°C 49.1°F9.5°C 90% 3.1 mph ENE5.0 kmh ENE 4.5 mph7.2 kmh 28.96 in980.7 mb 0.00 in0.0 mm 0.00 in/hr0.0 mm/hr 0.00 in0.0 mm